createdAt,value
2018-11-22T00:00:57.478Z,13.80
2018-11-22T00:01:57.410Z,13.30
2018-11-22T00:02:57.339Z,13.50
2018-11-22T00:03:57.284Z,13.80
2018-11-22T00:04:57.205Z,13.80
2018-11-22T00:05:57.135Z,13.80
2018-11-22T00:06:57.068Z,14.30
2018-11-22T00:07:57.003Z,14.30
2018-11-22T00:08:56.937Z,14.10
2018-11-22T00:09:56.862Z,14.40
2018-11-22T00:10:56.804Z,14.60
2018-11-22T00:11:56.732Z,14.40
2018-11-22T00:12:56.663Z,14.20
2018-11-22T00:13:56.596Z,15.20
2018-11-22T00:14:56.527Z,14.20
2018-11-22T00:15:56.463Z,14.30
2018-11-22T00:16:56.393Z,13.90
2018-11-22T00:17:56.325Z,14.50
2018-11-22T00:18:56.258Z,14.20
2018-11-22T00:19:56.198Z,14.10
2018-11-22T00:20:56.118Z,15.10
2018-11-22T00:21:56.056Z,13.70
2018-11-22T00:22:55.989Z,14.60
2018-11-22T00:23:55.924Z,14.40
2018-11-22T00:24:55.867Z,14.70
2018-11-22T00:25:55.787Z,14.30
2018-11-22T00:26:55.720Z,13.50
2018-11-22T00:27:55.651Z,14.90
2018-11-22T00:28:55.583Z,14.20
2018-11-22T00:29:55.533Z,14.40
2018-11-22T00:30:55.447Z,14.20
2018-11-22T00:31:55.382Z,14.20
2018-11-22T00:32:55.314Z,14.50
2018-11-22T00:33:55.256Z,13.90
2018-11-22T00:34:55.179Z,14.90
2018-11-22T00:35:55.121Z,14.00
2018-11-22T00:36:55.048Z,13.60
2018-11-22T00:37:54.976Z,15.20
2018-11-22T00:38:54.912Z,14.00
2018-11-22T00:39:54.842Z,13.60
2018-11-22T00:40:54.775Z,14.00
2018-11-22T00:41:54.704Z,14.40
2018-11-22T00:42:54.638Z,13.90
2018-11-22T00:43:54.574Z,14.70
2018-11-22T00:44:54.504Z,14.60
2018-11-22T00:45:54.436Z,14.40
2018-11-22T00:46:54.369Z,14.60
2018-11-22T00:47:54.306Z,14.80
2018-11-22T00:48:54.235Z,15.10
2018-11-22T00:49:54.165Z,15.50
2018-11-22T00:50:54.099Z,15.20
2018-11-22T00:51:54.047Z,15.00
2018-11-22T00:52:53.977Z,15.30
2018-11-22T00:53:53.894Z,15.00
2018-11-22T00:54:53.842Z,14.60
2018-11-22T00:55:53.787Z,14.20
2018-11-22T00:56:53.694Z,15.60
2018-11-22T00:57:53.622Z,15.80
2018-11-22T00:58:53.560Z,15.60
2018-11-22T00:59:53.492Z,16.00
2018-11-22T01:00:53.444Z,16.20
2018-11-22T01:01:53.360Z,15.30
2018-11-22T01:02:53.291Z,15.90
2018-11-22T01:03:53.230Z,16.30
2018-11-22T01:04:53.155Z,15.80
2018-11-22T01:05:53.088Z,16.30
2018-11-22T01:06:53.020Z,16.00
2018-11-22T01:07:52.956Z,15.90
2018-11-22T01:08:52.885Z,16.90
2018-11-22T01:09:52.816Z,16.00
2018-11-22T01:10:52.752Z,15.60
2018-11-22T01:11:52.687Z,15.70
2018-11-22T01:12:52.614Z,15.30
2018-11-22T01:13:52.544Z,16.10
2018-11-22T01:14:52.481Z,15.50
2018-11-22T01:15:52.408Z,15.90
2018-11-22T01:16:52.344Z,16.80
2018-11-22T01:17:52.276Z,16.10
2018-11-22T01:18:52.216Z,15.40
2018-11-22T01:19:52.146Z,15.20
2018-11-22T01:20:52.076Z,16.10
2018-11-22T01:21:52.008Z,16.00
2018-11-22T01:22:51.940Z,15.50
2018-11-22T01:23:51.873Z,15.10
2018-11-22T01:24:51.804Z,15.40
2018-11-22T01:25:51.771Z,16.20
2018-11-22T01:26:51.669Z,15.90
2018-11-22T01:27:51.603Z,16.20
2018-11-22T01:28:51.537Z,16.30
2018-11-22T01:29:51.468Z,15.80
2018-11-22T01:30:51.406Z,15.90
2018-11-22T01:31:51.333Z,15.70
2018-11-22T01:32:51.285Z,15.70
2018-11-22T01:33:51.201Z,15.10
2018-11-22T01:34:51.133Z,15.20
2018-11-22T01:35:51.061Z,16.00
2018-11-22T01:36:50.998Z,16.10
2018-11-22T01:37:50.930Z,15.30
2018-11-22T01:38:50.862Z,16.20
2018-11-22T01:39:50.796Z,15.70
2018-11-22T01:40:50.727Z,17.00
2018-11-22T01:41:50.663Z,15.70
2018-11-22T01:42:50.592Z,15.70
2018-11-22T01:43:50.524Z,14.90
2018-11-22T01:44:50.457Z,15.60
2018-11-22T01:45:50.389Z,16.90
2018-11-22T01:46:50.322Z,15.80
2018-11-22T01:47:50.255Z,15.90
2018-11-22T01:48:50.186Z,15.00
2018-11-22T01:49:50.121Z,15.00
2018-11-22T01:50:50.051Z,14.90
2018-11-22T01:51:49.988Z,15.50
2018-11-22T01:52:49.919Z,15.30
2018-11-22T01:53:49.852Z,14.80
2018-11-22T01:54:49.784Z,15.00
2018-11-22T01:55:49.723Z,15.20
2018-11-22T01:56:49.647Z,15.10
2018-11-22T01:57:49.579Z,15.30
2018-11-22T01:58:49.515Z,15.00
2018-11-22T01:59:49.444Z,14.50
2018-11-22T02:00:49.378Z,14.50
2018-11-22T02:01:49.311Z,15.70
2018-11-22T02:02:49.244Z,14.60
2018-11-22T02:03:49.177Z,15.00
2018-11-22T02:04:49.111Z,15.10
2018-11-22T02:05:49.042Z,15.90
2018-11-22T02:06:48.974Z,15.70
2018-11-22T02:07:48.907Z,14.90
2018-11-22T02:08:48.838Z,15.00
2018-11-22T02:09:48.775Z,15.90
2018-11-22T02:10:48.705Z,15.10
2018-11-22T02:11:48.638Z,15.90
2018-11-22T02:12:48.570Z,15.50
2018-11-22T02:13:48.503Z,15.50
2018-11-22T02:14:48.439Z,14.80
2018-11-22T02:15:48.365Z,14.90
2018-11-22T02:16:48.301Z,14.80
2018-11-22T02:17:48.235Z,14.40
2018-11-22T02:18:48.171Z,14.40
2018-11-22T02:19:48.099Z,15.70
2018-11-22T02:20:48.031Z,15.20
2018-11-22T02:21:47.964Z,15.40
2018-11-22T02:22:47.896Z,15.90
2018-11-22T02:23:47.829Z,14.70
2018-11-22T02:24:47.760Z,14.90
2018-11-22T02:25:47.692Z,14.80
2018-11-22T02:26:47.624Z,15.10
2018-11-22T02:27:47.561Z,14.30
2018-11-22T02:28:47.493Z,15.60
2018-11-22T02:29:47.425Z,14.80
2018-11-22T02:30:47.355Z,14.40
2018-11-22T02:31:47.292Z,15.10
2018-11-22T02:32:47.222Z,15.00
2018-11-22T02:33:47.156Z,14.20
2018-11-22T02:34:47.096Z,14.80
2018-11-22T02:35:47.024Z,15.10
2018-11-22T02:36:46.953Z,15.40
2018-11-22T02:37:46.886Z,15.50
2018-11-22T02:38:46.817Z,15.10
2018-11-22T02:39:46.751Z,14.80
2018-11-22T02:40:46.683Z,15.10
2018-11-22T02:41:46.615Z,16.10
2018-11-22T02:42:46.549Z,15.40
2018-11-22T02:43:46.483Z,14.60
2018-11-22T02:44:46.411Z,14.80
2018-11-22T02:45:46.350Z,14.80
2018-11-22T02:46:46.278Z,15.30
2018-11-22T02:47:46.216Z,14.90
2018-11-22T02:48:46.143Z,14.90
2018-11-22T02:49:46.076Z,14.00
2018-11-22T02:50:46.011Z,15.30
2018-11-22T02:51:45.941Z,15.20
2018-11-22T02:52:45.875Z,14.90
2018-11-22T02:53:45.808Z,14.80
2018-11-22T02:54:45.740Z,15.60
2018-11-22T02:55:45.675Z,16.30
2018-11-22T02:56:45.606Z,15.30
2018-11-22T02:57:45.539Z,15.20
2018-11-22T02:58:45.474Z,15.30
2018-11-22T02:59:45.404Z,15.80
2018-11-22T03:00:45.335Z,16.50
2018-11-22T03:01:45.276Z,15.90
2018-11-22T03:02:45.202Z,15.20
2018-11-22T03:03:45.134Z,15.60
2018-11-22T03:04:45.075Z,15.70
2018-11-22T03:05:45.000Z,15.50
2018-11-22T03:06:44.937Z,16.10
2018-11-22T03:07:44.870Z,16.50
2018-11-22T03:08:44.798Z,16.70
2018-11-22T03:09:44.731Z,16.00
2018-11-22T03:10:44.660Z,15.50
2018-11-22T03:11:44.605Z,14.80
2018-11-22T03:12:44.529Z,16.30
2018-11-22T03:13:44.463Z,16.20
2018-11-22T03:14:44.393Z,15.10
2018-11-22T03:15:44.329Z,16.80
2018-11-22T03:16:44.265Z,16.20
2018-11-22T03:17:44.194Z,15.40
2018-11-22T03:18:44.124Z,16.50
2018-11-22T03:19:44.065Z,15.00
2018-11-22T03:20:43.988Z,16.00
2018-11-22T03:21:43.925Z,16.60
2018-11-22T03:22:43.854Z,16.30
2018-11-22T03:23:43.788Z,16.60
2018-11-22T03:24:43.720Z,16.10
2018-11-22T03:25:43.653Z,16.60
2018-11-22T03:26:43.583Z,16.60
2018-11-22T03:27:43.518Z,16.80
2018-11-22T03:28:43.451Z,15.80
2018-11-22T03:29:43.383Z,15.90
2018-11-22T03:30:43.318Z,16.50
2018-11-22T03:31:43.262Z,15.80
2018-11-22T03:32:43.182Z,17.00
2018-11-22T03:33:43.114Z,15.50
2018-11-22T03:34:43.047Z,16.40
2018-11-22T03:35:42.980Z,16.80
2018-11-22T03:36:42.911Z,16.50
2018-11-22T03:37:42.842Z,16.80
2018-11-22T03:38:42.782Z,16.90
2018-11-22T03:39:42.711Z,16.60
2018-11-22T03:40:42.641Z,16.10
2018-11-22T03:41:42.575Z,16.10
2018-11-22T03:42:42.507Z,16.60
2018-11-22T03:43:42.447Z,16.70
2018-11-22T03:44:42.383Z,18.00
2018-11-22T03:45:42.303Z,16.30
2018-11-22T03:46:42.237Z,17.60
2018-11-22T03:47:42.171Z,17.00
2018-11-22T03:48:42.105Z,16.70
2018-11-22T03:49:42.048Z,17.70
2018-11-22T03:50:41.969Z,16.10
2018-11-22T03:51:41.901Z,16.90
2018-11-22T03:52:41.836Z,17.00
2018-11-22T03:53:41.765Z,17.60
2018-11-22T03:54:41.723Z,17.10
2018-11-22T03:55:41.632Z,17.00
2018-11-22T03:56:41.579Z,17.30
2018-11-22T03:57:41.508Z,17.30
2018-11-22T03:58:41.431Z,16.70
2018-11-22T03:59:41.369Z,18.40
2018-11-22T04:00:41.303Z,16.80
2018-11-22T04:01:41.226Z,17.50
2018-11-22T04:02:41.160Z,16.30
2018-11-22T04:03:41.090Z,17.40
2018-11-22T04:04:41.027Z,17.80
2018-11-22T04:05:40.975Z,17.90
2018-11-22T04:06:40.893Z,17.30
2018-11-22T04:07:40.837Z,17.90
2018-11-22T04:08:40.757Z,17.90
2018-11-22T04:09:40.693Z,17.60
2018-11-22T04:10:40.620Z,18.60
2018-11-22T04:11:40.554Z,18.10
2018-11-22T04:12:40.486Z,17.10
2018-11-22T04:13:40.435Z,17.90
2018-11-22T04:14:40.393Z,16.80
2018-11-22T04:15:40.287Z,17.90
2018-11-22T04:16:40.229Z,18.60
2018-11-22T04:17:40.149Z,17.90
2018-11-22T04:18:40.091Z,17.80
2018-11-22T04:19:40.019Z,17.70
2018-11-22T04:20:39.947Z,17.60
2018-11-22T04:21:39.880Z,16.70
2018-11-22T04:22:39.813Z,16.90
2018-11-22T04:23:39.748Z,18.00
2018-11-22T04:24:39.686Z,16.80
2018-11-22T04:25:39.612Z,17.40
2018-11-22T04:26:39.543Z,17.60
2018-11-22T04:27:39.476Z,16.80
2018-11-22T04:28:39.412Z,19.30
2018-11-22T04:29:39.342Z,17.50
2018-11-22T04:30:39.275Z,17.50
2018-11-22T04:31:39.209Z,17.20
2018-11-22T04:32:39.138Z,17.00
2018-11-22T04:33:39.079Z,18.40
2018-11-22T04:34:39.008Z,17.40
2018-11-22T04:35:38.941Z,18.00
2018-11-22T04:36:38.875Z,17.90
2018-11-22T04:37:38.801Z,17.80
2018-11-22T04:38:38.740Z,17.30
2018-11-22T04:39:38.669Z,18.60
2018-11-22T04:40:38.600Z,18.30
2018-11-22T04:41:38.534Z,17.70
2018-11-22T04:42:38.467Z,18.50
2018-11-22T04:43:38.404Z,18.50
2018-11-22T04:44:38.331Z,18.10
2018-11-22T04:45:38.264Z,17.70
2018-11-22T04:46:38.204Z,17.70
2018-11-22T04:47:38.131Z,17.70
2018-11-22T04:48:38.063Z,17.40
2018-11-22T04:49:37.995Z,18.10
2018-11-22T04:50:37.928Z,18.30
2018-11-22T04:51:37.861Z,17.70
2018-11-22T04:52:37.793Z,17.50
2018-11-22T04:53:37.726Z,18.00
2018-11-22T04:54:37.658Z,18.20
2018-11-22T04:55:37.591Z,17.40
2018-11-22T04:56:37.541Z,17.90
2018-11-22T04:57:37.457Z,17.30
2018-11-22T04:58:37.391Z,17.70
2018-11-22T04:59:37.327Z,17.40
2018-11-22T05:00:37.268Z,18.10
2018-11-22T05:01:37.189Z,18.30
2018-11-22T05:02:37.119Z,18.00
2018-11-22T05:03:37.056Z,18.70
2018-11-22T05:04:36.985Z,17.80
2018-11-22T05:05:36.915Z,17.80
2018-11-22T05:06:36.851Z,18.00
2018-11-22T05:07:36.788Z,18.80
2018-11-22T05:08:36.714Z,17.50
2018-11-22T05:09:36.648Z,18.40
2018-11-22T05:10:36.588Z,18.40
2018-11-22T05:11:36.513Z,18.10
2018-11-22T05:12:36.446Z,18.20
2018-11-22T05:13:36.385Z,18.10
2018-11-22T05:14:36.313Z,18.60
2018-11-22T05:15:36.245Z,18.00
2018-11-22T05:16:36.177Z,18.20
2018-11-22T05:17:36.109Z,18.30
2018-11-22T05:18:36.047Z,19.20
2018-11-22T05:19:35.984Z,18.70
2018-11-22T05:20:35.907Z,17.30
2018-11-22T05:21:35.840Z,18.00
2018-11-22T05:22:35.779Z,17.50
2018-11-22T05:23:35.706Z,19.00
2018-11-22T05:24:35.637Z,19.50
2018-11-22T05:25:35.570Z,19.10
2018-11-22T05:26:35.506Z,19.80
2018-11-22T05:27:35.433Z,19.70
2018-11-22T05:28:35.368Z,18.50
2018-11-22T05:29:35.300Z,19.10
2018-11-22T05:30:35.233Z,19.80
2018-11-22T05:31:35.179Z,20.30
2018-11-22T05:32:35.404Z,20.50
2018-11-22T05:33:35.031Z,19.40
2018-11-22T05:34:34.963Z,20.80
2018-11-22T05:35:34.898Z,20.60
2018-11-22T05:36:34.832Z,21.20
2018-11-22T05:37:34.763Z,20.20
2018-11-22T05:38:34.694Z,21.00
2018-11-22T05:39:34.626Z,20.30
2018-11-22T05:40:34.568Z,20.50
2018-11-22T05:41:34.490Z,20.80
2018-11-22T05:42:34.424Z,20.90
2018-11-22T05:43:34.356Z,20.90
2018-11-22T05:44:34.289Z,20.90
2018-11-22T05:45:34.222Z,20.90
2018-11-22T05:46:34.155Z,20.50
2018-11-22T05:47:34.088Z,20.50
2018-11-22T05:48:34.025Z,20.60
2018-11-22T05:49:33.950Z,20.40
2018-11-22T05:50:33.884Z,20.60
2018-11-22T05:51:33.819Z,19.80
2018-11-22T05:52:33.749Z,19.90
2018-11-22T05:53:33.701Z,19.90
2018-11-22T05:54:33.616Z,20.10
2018-11-22T05:55:33.546Z,20.20
2018-11-22T05:56:33.479Z,20.40
2018-11-22T05:57:33.412Z,20.90
2018-11-22T05:58:33.346Z,19.90
2018-11-22T05:59:33.280Z,20.40
2018-11-22T06:00:33.211Z,21.40
2018-11-22T06:01:33.144Z,20.80
2018-11-22T06:02:33.076Z,20.80
2018-11-22T06:03:33.009Z,19.60
2018-11-22T06:04:32.939Z,20.70
2018-11-22T06:05:32.872Z,20.70
2018-11-22T06:06:32.806Z,21.10
2018-11-22T06:07:32.739Z,20.10
2018-11-22T06:08:32.672Z,20.80
2018-11-22T06:09:32.602Z,19.70
2018-11-22T06:10:32.537Z,20.60
2018-11-22T06:11:32.469Z,19.70
2018-11-22T06:12:32.400Z,21.10
2018-11-22T06:13:32.333Z,20.90
2018-11-22T06:14:32.267Z,21.40
2018-11-22T06:15:32.204Z,20.80
2018-11-22T06:16:32.132Z,21.20
2018-11-22T06:17:32.061Z,22.00
2018-11-22T06:18:31.995Z,21.20
2018-11-22T06:19:31.930Z,22.10
2018-11-22T06:20:31.861Z,22.30
2018-11-22T06:21:31.820Z,22.40
2018-11-22T06:22:31.726Z,22.10
2018-11-22T06:23:31.660Z,22.30
2018-11-22T06:24:31.591Z,21.10
2018-11-22T06:25:31.523Z,21.70
2018-11-22T06:26:31.458Z,21.40
2018-11-22T06:27:31.388Z,20.90
2018-11-22T06:28:31.327Z,21.80
2018-11-22T06:29:31.252Z,20.80
2018-11-22T06:30:31.194Z,21.40
2018-11-22T06:31:31.139Z,20.80
2018-11-22T06:32:31.053Z,21.00
2018-11-22T06:33:30.984Z,21.30
2018-11-22T06:34:30.918Z,21.20
2018-11-22T06:35:30.849Z,20.90
2018-11-22T06:36:30.782Z,21.30
2018-11-22T06:37:30.716Z,21.10
2018-11-22T06:38:30.644Z,21.00
2018-11-22T06:39:30.580Z,21.90
2018-11-22T06:40:30.510Z,21.20
2018-11-22T06:41:30.447Z,20.60
2018-11-22T06:42:30.379Z,21.20
2018-11-22T06:43:30.311Z,21.50
2018-11-22T06:44:30.244Z,22.00
2018-11-22T06:45:30.175Z,21.90
2018-11-22T06:46:30.110Z,21.10
2018-11-22T06:47:30.040Z,22.00
2018-11-22T06:48:29.975Z,21.90
2018-11-22T06:49:29.908Z,21.80
2018-11-22T06:50:29.838Z,20.90
2018-11-22T06:51:29.774Z,21.00
2018-11-22T06:52:29.703Z,22.20
2018-11-22T06:53:29.637Z,21.80
2018-11-22T06:54:29.569Z,21.80
2018-11-22T06:55:29.521Z,23.50
2018-11-22T06:56:29.433Z,21.70
2018-11-22T06:57:29.367Z,22.20
2018-11-22T06:58:29.299Z,22.80
2018-11-22T06:59:29.231Z,22.00
2018-11-22T07:00:29.169Z,22.60
2018-11-22T07:01:29.111Z,21.00
2018-11-22T07:02:29.031Z,21.90
2018-11-22T07:03:28.964Z,22.10
2018-11-22T07:04:28.901Z,20.70
2018-11-22T07:05:28.840Z,21.30
2018-11-22T07:06:28.762Z,21.80
2018-11-22T07:07:28.695Z,20.40
2018-11-22T07:08:28.625Z,20.40
2018-11-22T07:09:28.558Z,19.60
2018-11-22T07:10:28.491Z,19.60
2018-11-22T07:11:28.428Z,20.70
2018-11-22T07:12:28.357Z,20.50
2018-11-22T07:13:28.288Z,20.10
2018-11-22T07:14:28.224Z,20.20
2018-11-22T07:15:28.159Z,20.60
2018-11-22T07:16:28.090Z,21.10
2018-11-22T07:17:28.020Z,20.30
2018-11-22T07:18:27.956Z,20.00
2018-11-22T07:19:27.886Z,19.90
2018-11-22T07:20:27.818Z,19.70
2018-11-22T07:21:27.751Z,19.90
2018-11-22T07:22:27.683Z,19.80
2018-11-22T07:23:27.622Z,20.50
2018-11-22T07:24:27.548Z,20.70
2018-11-22T07:25:27.485Z,20.10
2018-11-22T07:26:27.416Z,20.90
2018-11-22T07:27:27.353Z,20.70
2018-11-22T07:28:27.306Z,20.80
2018-11-22T07:29:27.219Z,20.40
2018-11-22T07:30:27.149Z,20.80
2018-11-22T07:31:27.079Z,20.30
2018-11-22T07:32:27.012Z,20.00
2018-11-22T07:33:26.951Z,19.80
2018-11-22T07:34:26.873Z,19.80
2018-11-22T07:35:26.813Z,19.90
2018-11-22T07:36:26.742Z,19.20
2018-11-22T07:37:26.676Z,19.60
2018-11-22T07:38:26.608Z,19.80
2018-11-22T07:39:26.540Z,20.30
2018-11-22T07:40:26.470Z,19.50
2018-11-22T07:41:26.412Z,20.20
2018-11-22T07:42:26.340Z,19.40
2018-11-22T07:43:26.269Z,20.00
2018-11-22T07:44:26.206Z,20.70
2018-11-22T07:45:26.137Z,19.90
2018-11-22T07:46:26.071Z,20.10
2018-11-22T07:47:26.003Z,20.00
2018-11-22T07:48:25.933Z,19.90
2018-11-22T07:49:25.866Z,19.30
2018-11-22T07:50:25.799Z,20.40
2018-11-22T07:51:25.734Z,19.30
2018-11-22T07:52:25.661Z,19.70
2018-11-22T07:53:25.597Z,20.00
2018-11-22T07:54:25.530Z,19.70
2018-11-22T07:55:25.474Z,18.80
2018-11-22T07:56:25.401Z,20.30
2018-11-22T07:57:25.329Z,19.00
2018-11-22T07:58:25.264Z,20.10
2018-11-22T07:59:25.196Z,19.20
2018-11-22T08:00:25.133Z,19.40
2018-11-22T08:01:25.057Z,20.30
2018-11-22T08:02:24.995Z,19.20
2018-11-22T08:03:24.928Z,19.90
2018-11-22T08:04:24.859Z,20.50
2018-11-22T08:05:24.792Z,20.10
2018-11-22T08:06:24.726Z,20.00
2018-11-22T08:07:24.663Z,22.20
2018-11-22T08:08:24.591Z,20.60
2018-11-22T08:09:24.524Z,20.50
2018-11-22T08:10:24.456Z,20.90
2018-11-22T08:11:24.390Z,20.10
2018-11-22T08:12:25.990Z,20.80
2018-11-22T08:13:24.264Z,21.10
2018-11-22T08:14:24.188Z,21.40
2018-11-22T08:15:24.120Z,20.80
2018-11-22T08:16:24.053Z,19.70
2018-11-22T08:17:23.989Z,19.60
2018-11-22T08:18:23.919Z,19.90
2018-11-22T08:19:23.852Z,19.40
2018-11-22T08:20:23.783Z,19.80
2018-11-22T08:21:23.718Z,19.40
2018-11-22T08:22:23.647Z,19.00
2018-11-22T08:23:23.581Z,18.60
2018-11-22T08:24:23.520Z,18.90
2018-11-22T08:25:23.451Z,19.50
2018-11-22T08:26:23.383Z,19.40
2018-11-22T08:27:23.315Z,19.30
2018-11-22T08:28:23.247Z,19.20
2018-11-22T08:29:23.180Z,19.80
2018-11-22T08:30:23.114Z,19.50
2018-11-22T08:31:23.041Z,20.50
2018-11-22T08:32:22.978Z,20.50
2018-11-22T08:33:22.910Z,20.20
2018-11-22T08:34:22.844Z,19.10
2018-11-22T08:35:22.779Z,19.80
2018-11-22T08:36:22.716Z,20.20
2018-11-22T08:37:22.645Z,20.70
2018-11-22T08:38:22.577Z,20.00
2018-11-22T08:39:22.510Z,20.30
2018-11-22T08:40:22.441Z,21.90
2018-11-22T08:41:22.374Z,20.70
2018-11-22T08:42:22.307Z,19.80
2018-11-22T08:43:22.241Z,20.40
2018-11-22T08:44:22.194Z,20.00
2018-11-22T08:45:22.118Z,19.80
2018-11-22T08:46:22.047Z,19.40
2018-11-22T08:47:21.979Z,19.70
2018-11-22T08:48:21.905Z,20.80
2018-11-22T08:49:21.838Z,20.40
2018-11-22T08:50:21.772Z,20.80
2018-11-22T08:51:21.705Z,21.40
2018-11-22T08:52:21.636Z,19.80
2018-11-22T08:53:21.574Z,20.70
2018-11-22T08:54:21.504Z,21.90
2018-11-22T08:55:21.453Z,21.30
2018-11-22T08:56:21.370Z,21.50
2018-11-22T08:57:21.307Z,20.60
2018-11-22T08:58:21.236Z,20.70
2018-11-22T08:59:21.167Z,21.00
2018-11-22T09:00:21.104Z,20.80
2018-11-22T09:01:21.037Z,20.30
2018-11-22T09:02:20.967Z,21.20
2018-11-22T09:03:20.901Z,19.90
2018-11-22T09:04:20.833Z,19.80
2018-11-22T09:05:20.768Z,20.00
2018-11-22T09:06:20.698Z,19.90
2018-11-22T09:07:20.633Z,19.60
2018-11-22T09:08:20.566Z,20.20
2018-11-22T09:09:20.502Z,20.10
2018-11-22T09:10:20.432Z,19.60
2018-11-22T09:11:20.370Z,19.70
2018-11-22T09:12:20.298Z,20.80
2018-11-22T09:13:20.235Z,19.90
2018-11-22T09:14:20.165Z,20.50
2018-11-22T09:15:20.099Z,29.10
2018-11-22T09:16:20.032Z,48.40
2018-11-22T09:17:19.969Z,60.50
2018-11-22T09:18:19.901Z,58.00
2018-11-22T09:19:19.832Z,32.50
2018-11-22T09:20:19.764Z,28.90
2018-11-22T09:21:19.696Z,26.40
2018-11-22T09:22:19.632Z,21.40
2018-11-22T09:23:19.566Z,22.80
2018-11-22T09:24:24.144Z,20.60
2018-11-22T09:25:19.427Z,20.00
2018-11-22T09:26:19.364Z,20.60
2018-11-22T09:27:19.298Z,20.30
2018-11-22T09:28:19.227Z,19.80
2018-11-22T09:29:19.165Z,19.40
2018-11-22T09:30:19.097Z,20.40
2018-11-22T09:31:19.031Z,19.50
2018-11-22T09:32:18.964Z,19.90
2018-11-22T09:33:18.896Z,19.90
2018-11-22T09:34:18.832Z,19.20
2018-11-22T09:35:18.792Z,19.30
2018-11-22T09:36:18.701Z,20.50
2018-11-22T09:37:18.630Z,20.00
2018-11-22T09:38:18.565Z,19.30
2018-11-22T09:39:18.498Z,19.70
2018-11-22T09:40:18.429Z,18.40
2018-11-22T09:41:18.362Z,20.00
2018-11-22T09:42:18.371Z,19.30
2018-11-22T09:43:18.237Z,20.40
2018-11-22T09:44:18.163Z,19.20
2018-11-22T09:45:18.102Z,20.30
2018-11-22T09:46:18.029Z,19.90
2018-11-22T09:47:17.965Z,20.40
2018-11-22T09:48:17.894Z,20.60
2018-11-22T09:49:17.837Z,19.90
2018-11-22T09:50:17.759Z,21.80
2018-11-22T09:51:17.699Z,21.00
2018-11-22T09:52:17.630Z,20.60
2018-11-22T09:53:17.565Z,21.00
2018-11-22T09:54:17.497Z,21.30
2018-11-22T09:55:17.431Z,20.30
2018-11-22T09:56:17.376Z,20.40
2018-11-22T09:57:17.293Z,19.50
2018-11-22T09:58:17.231Z,19.50
2018-11-22T09:59:17.237Z,20.20
2018-11-22T10:00:17.097Z,19.80
2018-11-22T10:01:17.031Z,20.70
2018-11-22T10:02:16.964Z,21.70
2018-11-22T10:03:17.019Z,19.50
2018-11-22T10:04:16.828Z,27.30
2018-11-22T10:05:16.973Z,22.40
2018-11-22T10:06:16.699Z,24.60
2018-11-22T10:07:16.633Z,21.30
2018-11-22T10:08:16.564Z,21.00
2018-11-22T10:09:16.556Z,21.10
2018-11-22T10:10:16.440Z,20.50
2018-11-22T10:11:16.364Z,19.80
2018-11-22T10:12:16.358Z,20.00
2018-11-22T10:13:16.232Z,20.80
2018-11-22T10:14:16.170Z,19.90
2018-11-22T10:15:16.100Z,20.00
2018-11-22T10:16:16.041Z,19.30
2018-11-22T10:17:15.967Z,19.20
2018-11-22T10:18:15.899Z,20.00
2018-11-22T10:19:15.834Z,58.00
2018-11-22T10:20:15.767Z,20.70
2018-11-22T10:21:15.700Z,20.80
2018-11-22T10:22:15.636Z,20.70
2018-11-22T10:23:15.583Z,21.80
2018-11-22T10:24:15.556Z,20.00
2018-11-22T10:25:15.433Z,19.50
2018-11-22T10:26:15.369Z,18.70
2018-11-22T10:27:15.303Z,19.40
2018-11-22T10:28:15.236Z,19.30
2018-11-22T10:29:15.176Z,18.00
2018-11-22T10:30:15.169Z,18.60
2018-11-22T10:31:15.036Z,18.20
2018-11-22T10:32:14.969Z,18.90
2018-11-22T10:33:14.901Z,19.00
2018-11-22T10:34:14.835Z,18.40
2018-11-22T10:35:14.854Z,18.40
2018-11-22T10:36:14.701Z,18.10
2018-11-22T10:37:14.651Z,18.60
2018-11-22T10:38:14.630Z,19.10
2018-11-22T10:39:14.516Z,18.10
2018-11-22T10:40:14.436Z,18.00
2018-11-22T10:41:14.368Z,18.40
2018-11-22T10:42:14.310Z,19.00
2018-11-22T10:43:14.239Z,18.50
2018-11-22T10:44:14.173Z,18.00
2018-11-22T10:45:14.141Z,18.00
2018-11-22T10:46:14.045Z,18.00
2018-11-22T10:47:13.978Z,17.70
2018-11-22T10:48:13.910Z,19.00
2018-11-22T10:49:13.850Z,18.80
2018-11-22T10:50:13.772Z,17.40
2018-11-22T10:51:13.708Z,19.40
2018-11-22T10:52:13.642Z,19.80
2018-11-22T10:53:13.575Z,17.70
2018-11-22T10:54:13.508Z,18.70
2018-11-22T10:55:13.447Z,18.20
2018-11-22T10:56:13.376Z,18.80
2018-11-22T10:57:13.308Z,18.40
2018-11-22T10:58:13.267Z,19.00
2018-11-22T10:59:13.178Z,17.90
2018-11-22T11:00:13.110Z,19.30
2018-11-22T11:01:13.049Z,18.10
2018-11-22T11:02:12.995Z,18.60
2018-11-22T11:03:12.919Z,18.60
2018-11-22T11:04:12.891Z,17.80
2018-11-22T11:05:12.779Z,17.60
2018-11-22T11:06:12.711Z,18.60
2018-11-22T11:07:12.646Z,18.80
2018-11-22T11:08:12.588Z,18.90
2018-11-22T11:09:12.513Z,19.20
2018-11-22T11:10:12.448Z,18.60
2018-11-22T11:11:12.380Z,19.00
2018-11-22T11:12:12.311Z,19.90
2018-11-22T11:13:12.254Z,19.50
2018-11-22T11:14:12.181Z,19.70
2018-11-22T11:15:12.113Z,18.50
2018-11-22T11:16:12.045Z,19.60
2018-11-22T11:17:11.986Z,19.10
2018-11-22T11:18:11.918Z,19.00
2018-11-22T11:19:11.847Z,19.40
2018-11-22T11:20:11.782Z,18.90
2018-11-22T11:21:11.717Z,18.70
2018-11-22T11:22:11.649Z,18.80
2018-11-22T11:23:11.584Z,18.20
2018-11-22T11:24:11.516Z,19.50
2018-11-22T11:25:11.453Z,18.60
2018-11-22T11:26:11.384Z,18.30
2018-11-22T11:27:11.316Z,19.20
2018-11-22T11:28:11.250Z,19.20
2018-11-22T11:29:12.804Z,19.60
2018-11-22T11:30:11.121Z,18.80
2018-11-22T11:31:11.058Z,18.90
2018-11-22T11:32:10.988Z,20.30
2018-11-22T11:33:10.921Z,18.90
2018-11-22T11:34:10.852Z,19.50
2018-11-22T11:35:10.784Z,18.60
2018-11-22T11:36:10.732Z,17.80
2018-11-22T11:37:10.652Z,18.50
2018-11-22T11:38:10.591Z,18.80
2018-11-22T11:39:10.521Z,18.90
2018-11-22T11:40:10.457Z,19.20
2018-11-22T11:41:10.384Z,18.70
2018-11-22T11:42:10.328Z,18.60
2018-11-22T11:43:10.254Z,18.80
2018-11-22T11:44:10.187Z,17.40
2018-11-22T11:45:10.127Z,18.80
2018-11-22T11:46:10.056Z,17.60
2018-11-22T11:47:09.995Z,18.90
2018-11-22T11:48:09.931Z,19.30
2018-11-22T11:49:09.867Z,19.50
2018-11-22T11:50:09.794Z,19.80
2018-11-22T11:51:09.726Z,18.60
2018-11-22T11:52:09.658Z,18.20
2018-11-22T11:53:09.594Z,18.90
2018-11-22T11:54:09.530Z,18.90
2018-11-22T11:55:09.462Z,19.50
2018-11-22T11:56:09.414Z,18.50
2018-11-22T11:57:09.329Z,18.90
2018-11-22T11:58:09.264Z,18.10
2018-11-22T11:59:09.197Z,17.90
2018-11-22T12:00:09.136Z,20.20
2018-11-22T12:01:09.065Z,18.80
2018-11-22T12:02:09.800Z,19.80
2018-11-22T12:03:08.929Z,19.40
2018-11-22T12:04:08.864Z,19.30
2018-11-22T12:05:08.802Z,18.90
2018-11-22T12:06:08.743Z,18.60
2018-11-22T12:07:08.668Z,19.00
2018-11-22T12:08:08.601Z,18.50
2018-11-22T12:09:08.537Z,18.70
2018-11-22T12:10:08.471Z,23.00
2018-11-22T12:11:08.399Z,24.70
2018-11-22T12:12:08.338Z,23.90
2018-11-22T12:13:08.272Z,84.90
2018-11-22T12:14:08.208Z,63.90
2018-11-22T12:15:08.141Z,59.30
2018-11-22T12:16:08.076Z,61.90
2018-11-22T12:17:08.008Z,51.90
2018-11-22T12:18:07.939Z,32.50
2018-11-22T12:19:07.876Z,33.40
2018-11-22T12:20:07.811Z,25.40
2018-11-22T12:21:07.743Z,22.40
2018-11-22T12:22:07.678Z,20.80
2018-11-22T12:23:07.612Z,18.20
2018-11-22T12:24:07.550Z,26.70
2018-11-22T12:25:07.480Z,19.20
2018-11-22T12:26:07.415Z,19.60
2018-11-22T12:27:07.349Z,19.50
2018-11-22T12:28:07.311Z,21.70
2018-11-22T12:29:07.215Z,21.50
2018-11-22T12:30:07.188Z,21.30
2018-11-22T12:31:07.090Z,21.50
2018-11-22T12:32:07.018Z,19.80
2018-11-22T12:33:06.953Z,19.80
2018-11-22T12:34:06.909Z,19.00
2018-11-22T12:35:06.819Z,20.30
2018-11-22T12:36:06.765Z,19.50
2018-11-22T12:37:06.686Z,20.10
2018-11-22T12:38:06.622Z,19.90
2018-11-22T12:39:06.551Z,19.20
2018-11-22T12:40:06.491Z,18.80
2018-11-22T12:41:06.437Z,19.20
2018-11-22T12:42:06.357Z,19.10
2018-11-22T12:43:06.289Z,18.10
2018-11-22T12:44:06.226Z,18.70
2018-11-22T12:45:06.177Z,18.20
2018-11-22T12:46:06.093Z,18.90
2018-11-22T12:47:06.030Z,19.10
2018-11-22T12:48:05.970Z,18.00
2018-11-22T12:49:05.896Z,18.50
2018-11-22T12:50:05.826Z,18.00
2018-11-22T12:51:05.767Z,18.10
2018-11-22T12:52:05.697Z,17.60